Time;durP1;ratioP1;P1;durP2;ratioP2;P2;SDS_P1;SDS_P2;PMS_P1;PMS_P2;Temp;Humidity;BMP_temperature;BMP_pressure;BME280_temperature;BME280_humidity;BME280_pressure;Samples;Min_cycle;Max_cycle;Signal;HPM_P1;HPM_P2
2022/07/28 00:00:36;;;;;;;13.73;3.03;;;40.80;43.20;;;;;;5029729;28;20276;-66
2022/07/28 00:03:03;;;;;;;11.32;2.97;;;40.70;43.30;;;;;;5029502;28;20097;-65
2022/07/28 00:05:29;;;;;;;15.50;2.60;;;40.60;43.40;;;;;;5028953;28;20176;-66
2022/07/28 00:07:56;;;;;;;16.30;2.40;;;40.50;43.30;;;;;;5029753;28;20502;-67
2022/07/28 00:10:23;;;;;;;21.20;3.10;;;40.50;43.20;;;;;;5045492;28;20119;-66
2022/07/28 00:12:49;;;;;;;17.40;3.38;;;40.50;43.60;;;;;;5028528;28;20067;-68
2022/07/28 00:15:16;;;;;;;17.27;3.38;;;40.50;43.50;;;;;;5046924;28;20115;-68
2022/07/28 00:17:42;;;;;;;16.83;3.35;;;40.30;43.50;;;;;;5030146;28;20139;-66
2022/07/28 00:20:09;;;;;;;30.60;3.78;;;40.30;43.50;;;;;;5028569;28;20094;-67
2022/07/28 00:22:41;;;;;;;16.20;3.78;;;40.30;43.50;;;;;;5028630;28;20178;-65
2022/07/28 00:25:09;;;;;;;16.52;3.30;;;40.20;43.50;;;;;;5029882;28;20498;-66
2022/07/28 00:27:38;;;;;;;11.02;3.47;;;40.20;43.20;;;;;;5026403;28;20088;-66
2022/07/28 00:30:06;;;;;;;20.65;3.90;;;40.20;43.70;;;;;;5029216;28;20553;-67
2022/07/28 00:32:33;;;;;;;18.63;3.58;;;40.20;43.60;;;;;;5045397;28;20108;-66
2022/07/28 00:35:00;;;;;;;16.90;4.00;;;40.20;43.50;;;;;;5019072;28;20125;-71
2022/07/28 00:37:26;;;;;;;18.35;3.35;;;40.20;43.30;;;;;;5013231;28;20424;-66
2022/07/28 00:39:53;;;;;;;14.90;3.67;;;40.10;43.30;;;;;;5020507;28;20072;-65
2022/07/28 00:42:20;;;;;;;20.63;3.50;;;40.10;43.30;;;;;;5018462;28;20507;-69
2022/07/28 00:44:47;;;;;;;16.50;3.60;;;40.00;43.40;;;;;;5037115;28;20705;-65
2022/07/28 00:47:16;;;;;;;18.33;3.60;;;40.00;43.40;;;;;;5018186;28;20172;-67
2022/07/28 00:49:47;;;;;;;17.58;3.58;;;39.90;43.50;;;;;;5040752;28;20542;-66
2022/07/28 00:52:16;;;;;;;16.77;2.88;;;39.80;43.60;;;;;;5021201;28;20100;-67
2022/07/28 00:54:43;;;;;;;36.78;4.88;;;39.70;44.00;;;;;;5049999;28;20118;-67
2022/07/28 00:57:10;;;;;;;19.48;3.95;;;39.70;43.80;;;;;;5043585;28;20079;-66
2022/07/28 00:59:36;;;;;;;15.52;4.07;;;39.70;44.10;;;;;;4984464;28;20072;-68
2022/07/28 01:02:03;;;;;;;21.73;3.70;;;39.70;44.00;;;;;;5022479;28;20070;-69
2022/07/28 01:04:30;;;;;;;18.48;3.75;;;39.50;44.30;;;;;;5008845;28;20092;-69
2022/07/28 01:07:05;;;;;;;25.33;3.53;;;39.50;44.50;;;;;;5009556;28;20074;-67
2022/07/28 01:09:52;;;;;;;19.52;3.90;;;39.50;44.50;;;;;;5030573;28;20113;-67
2022/07/28 01:12:46;;;;;;;16.52;3.20;;;39.40;44.60;;;;;;5026665;28;20105;-67
2022/07/28 01:15:21;;;;;;;88.38;6.20;;;39.40;44.80;;;;;;5009775;28;20074;-69
2022/07/28 01:17:59;;;;;;;27.73;3.92;;;39.40;44.90;;;;;;5028802;28;20590;-68
2022/07/28 01:20:38;;;;;;;25.30;3.95;;;39.30;44.90;;;;;;5043439;28;20088;-64
2022/07/28 01:23:05;;;;;;;42.33;4.63;;;39.20;45.30;;;;;;5045578;28;20108;-66
2022/07/28 01:25:48;;;;;;;17.38;3.55;;;39.10;45.20;;;;;;5025232;28;20147;-67
2022/07/28 01:28:52;;;;;;;17.80;3.50;;;39.00;45.40;;;;;;5011422;28;20538;-68
2022/07/28 01:31:25;;;;;;;19.70;3.60;;;38.80;45.50;;;;;;5016897;28;20115;-66
2022/07/28 01:33:56;;;;;;;28.25;3.92;;;38.70;46.00;;;;;;5047900;28;20124;-69
2022/07/28 01:36:32;;;;;;;16.33;3.33;;;38.60;46.20;;;;;;5032119;28;20084;-66
2022/07/28 01:39:00;;;;;;;18.92;2.97;;;38.60;46.30;;;;;;5050065;28;20187;-69
2022/07/28 01:41:30;;;;;;;17.98;3.30;;;38.50;46.30;;;;;;5030152;28;20562;-70
2022/07/28 01:44:06;;;;;;;19.60;3.75;;;38.50;46.50;;;;;;5031999;28;20093;-68
2022/07/28 01:46:35;;;;;;;18.08;3.53;;;38.50;46.30;;;;;;4999776;28;20185;-65
2022/07/28 01:49:02;;;;;;;23.17;2.88;;;38.40;46.20;;;;;;5032391;28;20538;-65
2022/07/28 01:51:32;;;;;;;15.20;2.95;;;38.30;46.20;;;;;;5015590;28;20168;-68
2022/07/28 01:54:01;;;;;;;13.20;3.25;;;38.20;46.30;;;;;;5029521;28;20120;-68
2022/07/28 01:56:32;;;;;;;19.83;3.55;;;38.20;46.40;;;;;;5049960;28;20083;-69
2022/07/28 01:59:04;;;;;;;19.08;2.70;;;38.20;46.30;;;;;;5031039;28;20130;-67
2022/07/28 02:01:37;;;;;;;13.38;3.05;;;38.20;46.10;;;;;;5049282;28;20078;-69
2022/07/28 02:04:08;;;;;;;14.70;2.50;;;38.20;45.80;;;;;;5031251;28;20089;-68
2022/07/28 02:06:36;;;;;;;14.93;2.95;;;38.20;46.30;;;;;;5015946;28;20074;-65
2022/07/28 02:09:05;;;;;;;22.60;3.17;;;38.20;45.20;;;;;;5049403;28;20141;-69
2022/07/28 02:11:39;;;;;;;18.90;2.67;;;38.20;44.60;;;;;;4998690;28;20070;-71
2022/07/28 02:14:15;;;;;;;13.35;2.70;;;38.20;44.40;;;;;;5015316;28;20170;-68
2022/07/28 02:16:47;;;;;;;13.60;2.85;;;38.10;44.40;;;;;;5031636;28;20084;-67
2022/07/28 02:19:14;;;;;;;19.83;2.75;;;38.00;44.20;;;;;;5000678;28;20100;-66
2022/07/28 02:21:42;;;;;;;14.00;2.85;;;37.90;44.10;;;;;;5022575;28;20100;-70
2022/07/28 02:24:11;;;;;;;24.35;3.80;;;37.90;44.10;;;;;;4999060;28;20112;-65
2022/07/28 02:26:43;;;;;;;13.15;2.75;;;37.90;44.00;;;;;;5030588;28;20859;-66
2022/07/28 02:29:12;;;;;;;16.40;3.10;;;37.80;43.80;;;;;;5012062;28;21405;-68
2022/07/28 02:31:50;;;;;;;16.83;2.90;;;37.70;43.70;;;;;;5052730;28;20074;-63
2022/07/28 02:34:21;;;;;;;14.68;2.70;;;37.70;43.90;;;;;;5014870;28;20117;-67
2022/07/28 02:36:56;;;;;;;12.35;2.15;;;37.60;43.90;;;;;;5014709;28;20480;-66
2022/07/28 02:39:27;;;;;;;17.08;3.22;;;37.60;44.00;;;;;;5030519;28;20076;-66
2022/07/28 02:42:06;;;;;;;15.10;2.60;;;37.40;43.90;;;;;;5030894;28;20115;-66
2022/07/28 02:44:42;;;;;;;11.15;3.17;;;37.40;43.70;;;;;;5029754;28;20176;-67
2022/07/28 02:47:14;;;;;;;18.48;3.65;;;37.30;43.70;;;;;;5014820;28;20070;-67
2022/07/28 02:49:42;;;;;;;16.10;2.95;;;37.20;43.20;;;;;;5015607;28;20449;-66
2022/07/28 02:52:11;;;;;;;19.88;2.78;;;37.10;43.20;;;;;;5048549;28;20070;-67
2022/07/28 02:54:38;;;;;;;11.70;2.92;;;37.10;43.20;;;;;;5029509;28;20119;-65
2022/07/28 02:57:06;;;;;;;15.98;2.42;;;37.10;43.40;;;;;;5028345;28;20575;-68
2022/07/28 02:59:34;;;;;;;20.40;3.25;;;37.10;43.50;;;;;;5029835;28;20081;-65
2022/07/28 03:02:01;;;;;;;19.02;2.70;;;37.00;44.20;;;;;;5014354;28;20074;-68
2022/07/28 03:07:14;;;;;;;15.90;2.63;;;36.90;44.10;;;;;;5032649;28;20072;-66
2022/07/28 03:09:44;;;;;;;15.27;2.70;;;36.80;44.00;;;;;;5028367;28;20106;-64
2022/07/28 03:12:11;;;;;;;13.63;2.90;;;36.80;44.20;;;;;;5027055;28;20072;-65
2022/07/28 03:14:38;;;;;;;12.20;2.85;;;36.70;44.20;;;;;;5030597;28;20075;-65
2022/07/28 03:17:05;;;;;;;12.23;2.78;;;36.70;44.30;;;;;;5029357;28;20531;-67
2022/07/28 03:19:32;;;;;;;18.10;2.50;;;36.60;44.30;;;;;;5029177;28;20155;-68
2022/07/28 03:21:58;;;;;;;18.55;2.22;;;36.60;44.60;;;;;;5029504;28;20590;-68
2022/07/28 03:24:29;;;;;;;10.48;2.60;;;36.50;44.40;;;;;;5028954;28;20109;-67
2022/07/28 03:27:10;;;;;;;12.23;2.55;;;36.50;44.60;;;;;;5014261;28;20094;-65
2022/07/28 03:29:39;;;;;;;11.80;2.53;;;36.40;44.70;;;;;;5029051;28;20112;-67
2022/07/28 03:32:06;;;;;;;7.53;2.33;;;36.40;44.80;;;;;;5014285;28;20073;-66
2022/07/28 03:34:33;;;;;;;14.40;2.83;;;36.40;44.90;;;;;;5014830;28;20117;-67
2022/07/28 03:37:10;;;;;;;11.90;2.65;;;36.40;45.00;;;;;;5028923;28;20093;-66
2022/07/28 03:39:44;;;;;;;13.20;3.28;;;36.40;45.20;;;;;;5015073;28;20470;-67
2022/07/28 03:42:11;;;;;;;21.98;3.15;;;36.30;45.10;;;;;;5030109;28;20087;-66
2022/07/28 03:44:38;;;;;;;16.20;3.15;;;36.30;45.30;;;;;;5012113;28;20089;-67
2022/07/28 03:47:06;;;;;;;13.88;3.20;;;36.20;45.40;;;;;;5028415;28;20069;-69
2022/07/28 03:49:32;;;;;;;13.50;2.53;;;36.20;45.40;;;;;;5029082;28;20535;-67
2022/07/28 03:51:59;;;;;;;14.52;3.05;;;36.20;45.50;;;;;;5047002;28;20123;-69
2022/07/28 03:54:25;;;;;;;18.85;3.10;;;36.20;45.70;;;;;;5046978;28;20547;-68
2022/07/28 03:56:51;;;;;;;17.70;3.15;;;36.20;45.80;;;;;;5029301;28;20085;-66
2022/07/28 03:59:19;;;;;;;26.95;3.60;;;36.10;45.80;;;;;;5028783;28;20077;-71
2022/07/28 04:01:45;;;;;;;19.92;3.95;;;36.20;45.90;;;;;;5029332;28;20086;-68
2022/07/28 04:04:12;;;;;;;14.43;3.33;;;36.10;46.10;;;;;;5039581;28;20118;-69
2022/07/28 04:06:38;;;;;;;26.23;3.25;;;36.10;46.10;;;;;;5046666;28;20128;-67
2022/07/28 04:09:04;;;;;;;14.77;3.15;;;36.10;46.10;;;;;;5028809;28;20070;-67
2022/07/28 04:11:31;;;;;;;29.02;3.15;;;36.00;46.30;;;;;;5028995;28;20101;-64
2022/07/28 04:13:57;;;;;;;17.20;3.25;;;36.10;46.30;;;;;;5011264;28;20436;-67
2022/07/28 04:16:24;;;;;;;19.50;3.22;;;36.00;46.60;;;;;;5046905;28;20502;-67
2022/07/28 04:18:50;;;;;;;22.17;3.78;;;35.90;46.60;;;;;;5030188;28;20535;-67
2022/07/28 04:21:17;;;;;;;25.15;3.63;;;35.90;46.80;;;;;;5026343;28;20164;-66
2022/07/28 04:23:43;;;;;;;19.90;2.80;;;35.80;46.80;;;;;;5027635;28;20173;-68
2022/07/28 04:26:09;;;;;;;24.17;3.63;;;35.80;46.80;;;;;;5027961;28;20081;-68
2022/07/28 04:28:37;;;;;;;18.67;3.58;;;35.80;47.00;;;;;;5050114;28;20066;-69
2022/07/28 04:31:04;;;;;;;17.33;3.33;;;35.80;47.00;;;;;;5032013;28;20069;-68
2022/07/28 04:33:30;;;;;;;24.92;3.75;;;35.80;47.00;;;;;;5049159;28;20118;-67
2022/07/28 04:35:57;;;;;;;25.33;3.60;;;35.80;47.10;;;;;;5029683;28;20161;-67
2022/07/28 04:38:23;;;;;;;24.42;3.33;;;35.70;47.10;;;;;;5046130;28;20093;-67
2022/07/28 04:40:50;;;;;;;19.10;3.80;;;35.70;47.20;;;;;;5017319;28;20116;-67
2022/07/28 04:43:16;;;;;;;25.88;3.60;;;35.70;47.40;;;;;;5017199;28;20070;-65
2022/07/28 04:45:45;;;;;;;14.20;3.15;;;35.70;47.50;;;;;;5042917;28;20147;-67
2022/07/28 04:48:12;;;;;;;21.73;3.33;;;35.60;47.50;;;;;;5014935;28;20081;-63
2022/07/28 04:50:43;;;;;;;12.30;3.40;;;35.60;47.50;;;;;;5020430;28;20119;-62
2022/07/28 04:53:09;;;;;;;15.27;4.30;;;35.60;47.70;;;;;;5016701;28;20085;-63
2022/07/28 04:55:37;;;;;;;14.25;4.07;;;35.60;47.70;;;;;;5018148;28;20082;-63
2022/07/28 04:58:07;;;;;;;22.23;4.88;;;35.50;47.80;;;;;;5014245;28;20085;-63
2022/07/28 05:00:34;;;;;;;25.15;4.82;;;35.50;47.80;;;;;;5016210;28;20165;-63
2022/07/28 05:03:01;;;;;;;21.48;4.88;;;35.40;48.00;;;;;;5020203;28;20439;-65
2022/07/28 05:05:28;;;;;;;14.65;4.18;;;35.40;48.10;;;;;;5013715;28;20094;-65
2022/07/28 05:07:54;;;;;;;22.10;5.15;;;35.40;48.10;;;;;;5018293;28;20070;-65
2022/07/28 05:10:21;;;;;;;20.08;4.88;;;35.30;48.20;;;;;;5014864;28;20073;-66
2022/07/28 05:12:48;;;;;;;15.48;3.97;;;35.30;48.30;;;;;;5048538;28;20085;-63
2022/07/28 05:15:14;;;;;;;16.80;4.25;;;35.30;48.30;;;;;;5014723;28;20110;-66
2022/07/28 05:17:41;;;;;;;15.13;3.95;;;35.20;48.60;;;;;;5016078;28;20447;-64
2022/07/28 05:20:08;;;;;;;14.15;3.40;;;35.20;48.80;;;;;;5018387;28;20089;-64
2022/07/28 05:22:41;;;;;;;17.08;3.75;;;35.10;48.90;;;;;;5015386;28;20172;-63
2022/07/28 05:25:19;;;;;;;13.75;3.55;;;35.00;48.90;;;;;;5012894;28;20093;-63
2022/07/28 05:27:46;;;;;;;16.00;3.72;;;35.10;49.20;;;;;;5020573;28;20184;-64
2022/07/28 05:30:14;;;;;;;20.75;4.18;;;35.10;49.30;;;;;;5022093;28;20102;-63
2022/07/28 05:32:41;;;;;;;16.15;4.00;;;35.00;49.50;;;;;;5046866;28;20156;-63
2022/07/28 05:35:08;;;;;;;17.77;4.65;;;35.00;49.60;;;;;;5033735;28;20081;-65
2022/07/28 05:37:36;;;;;;;13.40;3.95;;;35.00;49.70;;;;;;5032617;28;20542;-63
2022/07/28 05:40:07;;;;;;;12.00;4.30;;;34.90;49.80;;;;;;5016406;28;20167;-64
2022/07/28 05:42:36;;;;;;;17.40;4.07;;;34.90;50.00;;;;;;5018396;28;20428;-63
2022/07/28 05:45:06;;;;;;;15.50;4.25;;;34.80;50.20;;;;;;5032994;28;20619;-63
2022/07/28 05:47:41;;;;;;;14.55;4.10;;;34.80;50.50;;;;;;5048150;28;20578;-64
2022/07/28 05:50:08;;;;;;;17.23;4.25;;;34.90;50.40;;;;;;5032698;28;20066;-63
2022/07/28 05:52:34;;;;;;;16.70;4.93;;;34.80;50.50;;;;;;5032841;28;20168;-63
2022/07/28 05:55:01;;;;;;;21.38;4.75;;;34.80;50.40;;;;;;5032198;28;20077;-63
2022/07/28 05:57:27;;;;;;;21.77;5.00;;;34.70;50.40;;;;;;5049424;28;20078;-63
2022/07/28 05:59:53;;;;;;;19.25;4.50;;;34.70;50.70;;;;;;5050381;28;20085;-64
2022/07/28 06:02:20;;;;;;;18.88;3.72;;;34.60;50.70;;;;;;5014251;28;20105;-62
2022/07/28 06:04:46;;;;;;;20.33;4.07;;;34.70;50.90;;;;;;5033235;28;20089;-63
2022/07/28 06:07:12;;;;;;;15.40;3.83;;;34.60;51.10;;;;;;5032598;28;20074;-65
2022/07/28 06:09:39;;;;;;;13.57;4.25;;;34.60;51.10;;;;;;5016047;28;20552;-64
2022/07/28 06:12:05;;;;;;;17.17;3.40;;;34.60;51.40;;;;;;5031837;28;20160;-64
2022/07/28 06:14:32;;;;;;;14.68;3.53;;;34.60;51.50;;;;;;5049970;28;20078;-63
2022/07/28 06:16:58;;;;;;;19.58;4.07;;;34.50;51.60;;;;;;5030590;28;20081;-63
2022/07/28 06:19:25;;;;;;;13.88;3.00;;;34.50;51.70;;;;;;5050918;28;20561;-63
2022/07/28 06:21:51;;;;;;;16.70;3.33;;;34.50;51.50;;;;;;5031569;28;20078;-64
2022/07/28 06:24:18;;;;;;;18.65;3.72;;;34.40;51.30;;;;;;4997252;28;20789;-63
2022/07/28 06:26:44;;;;;;;18.23;3.22;;;34.40;51.20;;;;;;5031275;28;20184;-66
2022/07/28 06:29:11;;;;;;;22.02;3.92;;;34.30;50.90;;;;;;5013886;28;20065;-65
2022/07/28 06:31:38;;;;;;;25.98;4.18;;;34.30;49.80;;;;;;5030329;28;20181;-64
2022/07/28 06:34:04;;;;;;;24.17;4.15;;;34.20;49.60;;;;;;5028925;28;20116;-63
2022/07/28 06:36:30;;;;;;;22.30;4.32;;;34.20;49.50;;;;;;5014657;28;20069;-64
2022/07/28 06:38:57;;;;;;;26.58;4.40;;;34.10;49.20;;;;;;5031672;28;20076;-63
2022/07/28 06:41:23;;;;;;;13.85;4.22;;;34.10;49.10;;;;;;5029788;28;20069;-65
2022/07/28 06:43:51;;;;;;;26.77;4.72;;;34.10;49.10;;;;;;5027998;28;20557;-64
2022/07/28 06:46:18;;;;;;;21.15;4.40;;;34.10;49.60;;;;;;5014340;28;20101;-64
2022/07/28 06:48:44;;;;;;;14.45;4.10;;;34.10;49.00;;;;;;5045261;28;20494;-65
2022/07/28 06:51:11;;;;;;;11.80;3.35;;;34.00;49.10;;;;;;5045751;28;20070;-64
2022/07/28 06:53:38;;;;;;;10.82;3.88;;;34.00;49.20;;;;;;5027425;28;20470;-64
2022/07/28 06:56:04;;;;;;;12.40;2.97;;;33.90;49.20;;;;;;5045642;28;20160;-63
2022/07/28 06:58:31;;;;;;;12.65;3.60;;;33.90;49.10;;;;;;5012045;28;20535;-62
2022/07/28 07:00:57;;;;;;;13.52;3.55;;;33.90;49.20;;;;;;5026971;28;20078;-64
2022/07/28 07:03:24;;;;;;;12.27;4.13;;;33.80;49.30;;;;;;5026514;28;20156;-62
2022/07/28 07:05:50;;;;;;;18.73;4.90;;;33.80;49.40;;;;;;5014722;28;20092;-64
2022/07/28 07:08:16;;;;;;;13.30;5.10;;;33.80;49.50;;;;;;5044915;28;20088;-63
2022/07/28 07:10:43;;;;;;;13.48;4.28;;;33.80;49.60;;;;;;4996612;28;20546;-63
2022/07/28 07:13:09;;;;;;;16.02;4.25;;;33.70;49.70;;;;;;5046715;28;20569;-63
2022/07/28 07:15:36;;;;;;;18.33;4.13;;;33.70;49.90;;;;;;5029727;28;20522;-62
2022/07/28 07:18:02;;;;;;;21.13;4.32;;;33.70;50.00;;;;;;5030602;28;20070;-63
2022/07/28 07:20:28;;;;;;;15.10;4.45;;;33.70;50.20;;;;;;5030967;28;20081;-62
2022/07/28 07:22:55;;;;;;;17.73;4.45;;;33.60;50.60;;;;;;5046378;28;20096;-65
2022/07/28 07:25:21;;;;;;;13.60;4.15;;;33.60;50.90;;;;;;5026546;28;20081;-64
2022/07/28 07:27:47;;;;;;;17.33;4.45;;;33.60;51.10;;;;;;5012870;28;20099;-64
2022/07/28 07:30:15;;;;;;;13.30;4.47;;;33.50;51.30;;;;;;5047563;28;20802;-64
2022/07/28 07:32:42;;;;;;;18.02;5.07;;;33.60;51.60;;;;;;5028006;28;20111;-63
2022/07/28 07:35:09;;;;;;;20.00;4.40;;;33.60;51.60;;;;;;5031482;28;20543;-63
2022/07/28 07:37:35;;;;;;;14.38;3.83;;;33.60;51.80;;;;;;5029835;28;20073;-65
2022/07/28 07:40:04;;;;;;;13.43;4.03;;;33.60;52.00;;;;;;5029790;28;20078;-64
2022/07/28 07:42:30;;;;;;;21.38;5.50;;;33.50;52.20;;;;;;5030433;28;20070;-64
2022/07/28 07:44:56;;;;;;;19.90;4.80;;;33.50;52.50;;;;;;5029118;28;20100;-64
2022/07/28 07:47:23;;;;;;;15.55;5.10;;;33.50;52.60;;;;;;5025896;28;20077;-63
2022/07/28 07:49:50;;;;;;;17.48;5.07;;;33.40;52.70;;;;;;5049365;28;20074;-65
2022/07/28 07:52:17;;;;;;;19.58;6.10;;;33.40;53.10;;;;;;5029739;28;20135;-65
2022/07/28 07:54:44;;;;;;;22.98;5.50;;;33.40;53.20;;;;;;5031881;28;20081;-64
2022/07/28 07:57:10;;;;;;;16.80;4.68;;;33.40;53.40;;;;;;5027743;28;20527;-62
2022/07/28 07:59:37;;;;;;;18.25;4.78;;;33.30;53.50;;;;;;5013157;28;20168;-64
2022/07/28 08:02:04;;;;;;;15.07;4.38;;;33.30;53.60;;;;;;5028720;28;20108;-65
2022/07/28 08:04:30;;;;;;;17.95;4.55;;;33.30;53.80;;;;;;5050656;28;20086;-65
2022/07/28 08:06:56;;;;;;;15.57;4.50;;;33.30;54.00;;;;;;5036872;28;20112;-65
2022/07/28 08:09:23;;;;;;;17.08;4.85;;;33.30;54.00;;;;;;5052986;28;21072;-65
2022/07/28 08:11:50;;;;;;;18.17;5.10;;;33.20;54.40;;;;;;5037313;28;20077;-63
2022/07/28 08:14:16;;;;;;;22.52;4.68;;;33.20;54.40;;;;;;5052277;28;20180;-64
2022/07/28 08:16:43;;;;;;;24.73;4.95;;;33.30;54.70;;;;;;5033588;28;20074;-65
2022/07/28 08:19:09;;;;;;;19.58;5.05;;;33.20;54.70;;;;;;5033208;28;20073;-65
2022/07/28 08:21:37;;;;;;;15.52;4.63;;;33.20;54.90;;;;;;5017287;28;20101;-65
2022/07/28 08:24:03;;;;;;;28.30;5.47;;;33.20;55.10;;;;;;5051216;28;20080;-64
2022/07/28 08:26:30;;;;;;;24.10;5.00;;;33.20;55.00;;;;;;5029708;28;20483;-65
2022/07/28 08:28:56;;;;;;;19.98;4.47;;;33.10;55.10;;;;;;5032065;28;20076;-62
2022/07/28 08:31:23;;;;;;;16.48;5.57;;;33.10;55.30;;;;;;5031028;28;20097;-64
2022/07/28 08:33:49;;;;;;;22.48;4.78;;;33.10;55.40;;;;;;5033285;28;20263;-64
2022/07/28 08:36:16;;;;;;;15.18;4.30;;;33.00;55.60;;;;;;5016674;28;20073;-63
2022/07/28 08:38:42;;;;;;;22.98;5.35;;;33.00;55.70;;;;;;5034221;28;20077;-66
2022/07/28 08:41:16;;;;;;;17.98;5.30;;;33.00;55.90;;;;;;5051023;28;20099;-62
2022/07/28 08:43:44;;;;;;;19.15;5.18;;;33.00;56.00;;;;;;5031376;28;20069;-65
2022/07/28 08:46:11;;;;;;;20.20;4.97;;;33.00;56.20;;;;;;5050438;28;20092;-64
2022/07/28 08:48:38;;;;;;;16.75;4.45;;;33.00;56.40;;;;;;5016149;28;20704;-64
2022/07/28 08:51:08;;;;;;;20.77;5.20;;;33.00;56.50;;;;;;5050228;28;20563;-64
2022/07/28 08:53:36;;;;;;;25.67;5.97;;;33.00;56.60;;;;;;5030662;28;20143;-65
2022/07/28 08:56:05;;;;;;;22.60;5.43;;;33.00;57.40;;;;;;5032273;28;20443;-64
2022/07/28 08:58:33;;;;;;;27.90;5.70;;;32.90;56.90;;;;;;5031649;28;20089;-64
2022/07/28 09:01:00;;;;;;;25.25;5.32;;;33.00;57.10;;;;;;5051314;28;20073;-64
2022/07/28 09:03:28;;;;;;;27.98;6.03;;;32.90;57.20;;;;;;5033125;28;20073;-63
2022/07/28 09:05:58;;;;;;;22.05;5.47;;;32.90;57.30;;;;;;5031438;28;20101;-65
2022/07/28 09:08:25;;;;;;;20.15;5.45;;;32.90;58.10;;;;;;5030977;28;20485;-64
2022/07/28 09:10:51;;;;;;;26.70;6.20;;;32.90;57.70;;;;;;5050071;28;20089;-65
2022/07/28 09:13:18;;;;;;;19.77;6.22;;;32.90;57.80;;;;;;5030846;28;20078;-62
2022/07/28 09:15:45;;;;;;;16.70;6.35;;;32.80;57.90;;;;;;5017287;28;20085;-65
2022/07/28 09:18:13;;;;;;;20.15;6.45;;;32.90;58.20;;;;;;5031837;28;20105;-64
2022/07/28 09:20:40;;;;;;;19.48;7.05;;;32.90;58.20;;;;;;5033283;28;20074;-64
2022/07/28 09:23:08;;;;;;;22.90;6.70;;;32.80;58.20;;;;;;5032336;28;20551;-64
2022/07/28 09:25:35;;;;;;;23.35;6.78;;;32.80;59.20;;;;;;5028569;28;20131;-64
2022/07/28 09:28:16;;;;;;;21.00;7.07;;;32.80;59.20;;;;;;5015015;28;20080;-63
2022/07/28 09:30:45;;;;;;;23.10;7.50;;;32.90;58.70;;;;;;5047445;28;20089;-64
2022/07/28 09:33:26;;;;;;;25.58;7.40;;;32.80;58.60;;;;;;5030618;28;20112;-63
2022/07/28 09:35:54;;;;;;;22.42;7.30;;;32.90;58.70;;;;;;5031747;28;20091;-63
2022/07/28 09:38:24;;;;;;;20.13;7.05;;;32.90;58.70;;;;;;5032089;28;20097;-63
2022/07/28 09:40:59;;;;;;;23.05;7.50;;;32.80;58.90;;;;;;5031856;28;20089;-64
2022/07/28 09:43:34;;;;;;;21.88;7.97;;;32.90;59.00;;;;;;5030482;28;20080;-64
2022/07/28 09:46:04;;;;;;;29.52;7.90;;;32.80;59.10;;;;;;5048597;28;20622;-63
2022/07/28 09:48:31;;;;;;;21.33;7.32;;;32.80;59.30;;;;;;5015395;28;20074;-63
2022/07/28 09:51:14;;;;;;;21.52;7.25;;;32.80;59.50;;;;;;5032090;28;20070;-63
2022/07/28 09:53:42;;;;;;;22.95;7.07;;;32.80;59.60;;;;;;5014773;28;20074;-63
2022/07/28 09:56:10;;;;;;;24.02;7.63;;;32.80;59.80;;;;;;5030185;28;20074;-62
2022/07/28 09:58:38;;;;;;;18.52;7.03;;;32.90;60.00;;;;;;5050690;28;20181;-63
2022/07/28 10:01:20;;;;;;;22.73;7.55;;;32.80;60.20;;;;;;5047971;28;20172;-63
2022/07/28 10:03:51;;;;;;;17.73;6.55;;;32.80;60.40;;;;;;5047920;28;20077;-63
2022/07/28 10:06:31;;;;;;;19.08;7.80;;;32.70;61.20;;;;;;5033273;28;20582;-64
2022/07/28 10:09:00;;;;;;;21.77;8.15;;;32.70;61.50;;;;;;5031801;28;20164;-63
2022/07/28 10:11:29;;;;;;;16.23;7.78;;;32.70;62.30;;;;;;5030883;28;20086;-64
2022/07/28 10:14:06;;;;;;;24.17;8.48;;;32.70;62.50;;;;;;5029502;28;20072;-63
2022/07/28 10:16:34;;;;;;;19.83;7.40;;;32.70;62.90;;;;;;5031098;28;21363;-64
2022/07/28 10:19:04;;;;;;;24.38;7.07;;;32.70;64.10;;;;;;5014227;28;20123;-64
2022/07/28 10:21:40;;;;;;;15.88;6.45;;;32.70;63.60;;;;;;5029128;28;20090;-64
2022/07/28 10:24:08;;;;;;;14.57;6.53;;;32.60;64.10;;;;;;5030125;28;20566;-63
2022/07/28 10:26:42;;;;;;;22.45;6.43;;;32.60;65.00;;;;;;5028541;28;20621;-64
2022/07/28 10:29:14;;;;;;;14.88;5.72;;;32.60;65.50;;;;;;5030224;28;20534;-63
2022/07/28 10:31:59;;;;;;;20.40;6.47;;;32.50;65.70;;;;;;5030326;28;20084;-63
2022/07/28 10:34:43;;;;;;;15.55;6.38;;;32.50;65.90;;;;;;5031892;28;20610;-63
2022/07/28 10:37:17;;;;;;;18.55;6.78;;;32.50;66.30;;;;;;4998800;28;20088;-65
2022/07/28 10:40:13;;;;;;;17.98;6.07;;;32.50;66.60;;;;;;5014865;28;20164;-64
2022/07/28 10:42:40;;;;;;;15.82;5.35;;;32.40;66.80;;;;;;5028109;28;20579;-64
2022/07/28 10:45:11;;;;;;;15.20;4.97;;;32.40;67.50;;;;;;5030465;28;20551;-64
2022/07/28 10:47:38;;;;;;;19.48;5.60;;;32.30;67.80;;;;;;5029673;28;20538;-65
2022/07/28 10:50:07;;;;;;;18.83;4.93;;;32.30;68.30;;;;;;5030252;28;20168;-64
2022/07/28 10:52:35;;;;;;;17.05;5.22;;;32.30;68.50;;;;;;5030217;28;20074;-63
2022/07/28 10:55:11;;;;;;;15.88;4.35;;;32.20;68.70;;;;;;5048679;28;20084;-67
2022/07/28 10:57:46;;;;;;;11.18;3.67;;;32.20;68.90;;;;;;5029174;28;20423;-64
2022/07/28 11:00:21;;;;;;;16.35;3.97;;;32.10;69.30;;;;;;5029108;28;20084;-64
2022/07/28 11:02:51;;;;;;;14.18;4.03;;;32.10;69.80;;;;;;4995585;28;20147;-64
2022/07/28 11:05:27;;;;;;;15.63;4.47;;;32.10;70.20;;;;;;5030784;28;20089;-64
2022/07/28 11:07:54;;;;;;;19.27;4.53;;;32.10;70.60;;;;;;5030087;28;20085;-64
2022/07/28 11:10:21;;;;;;;16.25;3.63;;;32.00;71.10;;;;;;5011711;28;20075;-64
2022/07/28 11:12:49;;;;;;;15.00;4.43;;;31.90;71.60;;;;;;5013401;28;20509;-63
2022/07/28 11:15:32;;;;;;;15.85;3.85;;;31.90;72.40;;;;;;5031321;28;20435;-65
2022/07/28 11:18:07;;;;;;;31.10;4.60;;;32.00;73.00;;;;;;5047334;28;20566;-62
2022/07/28 11:20:52;;;;;;;18.05;4.47;;;31.90;73.60;;;;;;5014811;28;20557;-64
2022/07/28 11:23:40;;;;;;;14.75;4.43;;;31.90;74.20;;;;;;5028150;28;20541;-63
2022/07/28 11:26:22;;;;;;;20.40;4.05;;;31.90;74.50;;;;;;5047823;28;20135;-64
2022/07/28 11:29:04;;;;;;;14.95;4.35;;;31.90;75.50;;;;;;5026043;28;20424;-63
2022/07/28 11:31:46;;;;;;;17.88;4.65;;;31.80;76.50;;;;;;5029109;28;20073;-63
2022/07/28 11:34:23;;;;;;;13.00;4.43;;;31.80;76.50;;;;;;5028265;28;20108;-63
2022/07/28 11:37:09;;;;;;;17.95;4.43;;;31.80;77.20;;;;;;5012787;28;20073;-64
2022/07/28 11:39:37;;;;;;;22.02;4.50;;;31.70;77.70;;;;;;4998400;28;20080;-64
2022/07/28 11:42:27;;;;;;;17.10;4.20;;;31.70;78.00;;;;;;5029948;28;20133;-65
2022/07/28 11:44:54;;;;;;;16.98;4.40;;;31.70;78.30;;;;;;5028643;28;20136;-64
2022/07/28 11:47:23;;;;;;;13.25;4.00;;;31.70;78.70;;;;;;5029777;28;20077;-63
2022/07/28 11:50:11;;;;;;;10.98;3.50;;;31.70;78.90;;;;;;5047605;28;20070;-64
2022/07/28 11:52:50;;;;;;;15.25;4.20;;;31.70;79.20;;;;;;5046145;28;20151;-64
2022/07/28 11:55:18;;;;;;;19.60;4.50;;;31.70;79.70;;;;;;5013309;28;20168;-62
2022/07/28 11:57:45;;;;;;;11.52;3.67;;;31.60;80.20;;;;;;5028729;28;20100;-63
2022/07/28 12:00:18;;;;;;;16.23;4.72;;;31.60;80.70;;;;;;5046354;28;20066;-63
2022/07/28 12:02:44;;;;;;;13.18;4.00;;;31.60;81.80;;;;;;5029328;28;20081;-63
2022/07/28 12:05:12;;;;;;;18.02;4.78;;;31.60;81.50;;;;;;5013173;28;20106;-62
2022/07/28 12:07:44;;;;;;;16.05;4.63;;;31.60;81.70;;;;;;5047300;28;20127;-63
2022/07/28 12:10:24;;;;;;;21.15;4.32;;;31.60;81.90;;;;;;4997179;28;20520;-64
2022/07/28 12:12:53;;;;;;;14.73;4.43;;;31.60;82.10;;;;;;5012539;28;20146;-65
2022/07/28 12:15:20;;;;;;;15.60;4.32;;;31.50;82.50;;;;;;5013426;28;20084;-63
2022/07/28 12:17:48;;;;;;;25.73;5.00;;;31.40;83.10;;;;;;5030412;28;20081;-63
2022/07/28 12:20:16;;;;;;;18.33;4.30;;;31.40;83.50;;;;;;5030464;28;20168;-64
2022/07/28 12:23:00;;;;;;;16.30;4.38;;;31.50;83.50;;;;;;5029632;28;20089;-64
2022/07/28 12:25:27;;;;;;;18.10;4.70;;;31.40;83.70;;;;;;5028361;28;20089;-64
2022/07/28 12:27:54;;;;;;;14.20;3.33;;;31.50;83.30;;;;;;5047166;28;20077;-64
2022/07/28 12:30:26;;;;;;;14.13;3.65;;;31.50;81.60;;;;;;5025336;28;20078;-64
2022/07/28 12:32:54;;;;;;;16.35;3.63;;;31.50;81.30;;;;;;5028975;28;20635;-64
2022/07/28 12:35:22;;;;;;;18.70;4.43;;;31.40;81.00;;;;;;5027876;28;20217;-64
2022/07/28 12:37:49;;;;;;;16.98;3.70;;;31.40;81.30;;;;;;5028125;28;20449;-64
2022/07/28 12:40:18;;;;;;;14.93;3.90;;;31.40;81.70;;;;;;5028979;28;20090;-64
2022/07/28 12:42:50;;;;;;;22.42;3.75;;;31.30;81.90;;;;;;5011483;28;20073;-65
2022/07/28 12:45:16;;;;;;;18.20;4.30;;;31.30;82.20;;;;;;5027474;28;20108;-64
2022/07/28 12:47:43;;;;;;;16.10;3.88;;;31.30;81.60;;;;;;5013622;28;20066;-62
2022/07/28 12:50:18;;;;;;;17.25;4.18;;;31.20;80.90;;;;;;5050486;28;20073;-62